Latest Weather Observations for Mount Isa

IDQ60801

Issued at 11:05 pm EST Thursday 27 November 2014 (issued every 30 minutes, with the page automatically refreshed every 10 minutes)

About weather observations | Map of weather stations | Latest weather observations for QLD | Other Formats
Station Details ID: 029127 Name: MOUNT ISA AERO Lat: -20.68 Lon: 139.49 Height: 340.3 m
Data from the previous 72 hours. | See also: Recent months at Mount Isa
Date/Time
EST
Temp
°C
App
Temp
°C
Dew
Point
Rel
Hum
%
Delta-T
°C
Wind Press
QNH
hPa
Press
MSL
hPa
Rain
since 9 am
mm
Dir
 
Spd
km/h
Gust
km/h
Spd
kts
Gust
kts
27/11:00pm 27.4 27.2 18.6 58 5.7 E 17 22 9 12 1013.1 - 0.0
27/10:30pm 27.1 27.9 19.0 61 5.3 ENE 13 17 7 9 1012.6 - 0.0
27/10:00pm 27.2 26.8 19.3 62 5.2 NNE 20 28 11 15 1011.6 - 0.0
27/09:30pm 27.6 27.0 18.5 57 5.9 N 19 26 10 14 1011.3 - 0.0
27/09:00pm 27.1 26.9 18.6 59 5.5 NNE 17 26 9 14 1011.2 1008.9 0.0
27/08:30pm 27.1 25.1 18.4 59 5.6 NNE 26 33 14 18 1011.3 - 0.0
27/08:00pm 28.5 26.7 17.8 52 6.9 NNE 24 35 13 19 1010.5 - 0.0
27/07:30pm 29.5 26.7 15.4 42 8.8 NNE 24 32 13 17 1010.3 - 0.0
27/07:00pm 29.2 25.3 16.4 46 8.1 E 32 44 17 24 1010.0 - 0.0
27/06:30pm 28.6 23.7 17.2 50 7.3 E 39 56 21 30 1009.9 - 0.0
27/06:00pm 29.7 25.3 17.6 48 7.8 ESE 37 57 20 31 1009.6 1007.3 0.0
27/05:44pm 30.4 26.8 17.3 45 8.4 ESE 32 50 17 27 1009.6 - 0.0
27/05:30pm 30.6 26.1 16.4 42 9.0 SE 35 48 19 26 1009.3 - 0.0
27/05:22pm 31.3 27.1 16.2 40 9.6 SE 33 52 18 28 1009.2 - 0.0
27/05:00pm 32.5 27.9 16.0 37 10.5 SSE 35 48 19 26 1008.9 - 0.0
27/04:59pm 32.5 27.5 16.2 37 10.4 SSE 37 48 20 26 1008.9 - 0.0
27/04:56pm 32.7 28.9 15.8 36 10.7 S 30 48 16 26 1008.8 - 0.0
27/04:30pm 35.7 34.1 15.0 29 13.1 N 17 24 9 13 1007.8 - 0.0
27/04:00pm 36.2 34.2 14.0 26 13.9 N 17 26 9 14 1007.9 - 0.0
27/03:30pm 34.6 30.9 15.1 31 12.3 NE 28 43 15 23 1008.4 - 0.0
27/03:00pm 38.1 34.7 13.7 23 15.3 NE 24 32 13 17 1008.3 1006.0 0.0
27/02:30pm 38.3 36.3 12.8 22 15.8 N 15 20 8 11 1008.7 - 0.0
27/02:00pm 36.9 35.2 12.4 23 15.0 NNE 13 22 7 12 1009.1 - 0.0
27/01:30pm 37.2 34.0 11.9 22 15.4 NNE 20 32 11 17 1009.4 - 0.0
27/01:00pm 37.1 34.0 12.3 22 15.2 N 20 28 11 15 1009.7 - 0.0
27/12:30pm 36.5 33.8 11.8 22 15.0 N 17 28 9 15 1009.9 - 0.0
27/12:00pm 37.1 34.4 11.7 21 15.4 NNE 17 32 9 17 1010.1 1007.8 0.0
27/11:30am 36.2 33.5 11.7 22 14.8 NE 17 32 9 17 1010.5 - 0.0
27/11:00am 36.4 34.3 12.3 23 14.7 ENE 15 26 8 14 1010.8 - 0.0
27/10:30am 36.4 33.5 12.8 24 14.5 ENE 20 28 11 15 1011.0 - 0.0
27/10:00am 35.5 32.5 12.6 25 14.0 E 20 32 11 17 1011.5 - 0.0
27/09:30am 34.8 32.6 13.4 27 13.2 E 17 26 9 14 1011.5 - 0.0
27/09:00am 33.7 31.8 13.1 28 12.6 E 15 19 8 10 1011.4 1009.1 0.0
27/08:30am 33.3 31.5 13.2 29 12.3 ESE 15 20 8 11 1011.4 - 0.0
27/08:00am 32.4 30.2 13.4 31 11.6 E 17 22 9 12 1011.3 - 0.0
27/07:30am 31.2 32.1 13.9 35 10.6 WSW 2 7 1 4 1011.3 - 0.0
27/07:00am 26.5 30.0 19.5 65 4.6 CALM 0 0 0 0 1011.0 - 0.0
27/06:30am 25.7 27.1 17.7 61 5.1 SW 7 9 4 5 1010.9 - 0.0
27/06:00am 24.7 28.3 19.8 74 3.2 CALM 0 0 0 0 1010.6 1008.3 0.0
27/05:30am 24.7 27.9 18.8 69 3.8 CALM 0 0 0 0 1010.5 - 0.0
27/05:00am 25.1 28.4 19.1 69 3.9 CALM 0 0 0 0 1010.4 - 0.0
27/04:30am 25.5 28.9 19.4 69 4.0 CALM 0 0 0 0 1010.1 - 0.0
27/04:00am 25.6 27.5 19.8 70 3.8 WNW 9 11 5 6 1010.0 - 0.0
27/03:30am 26.1 27.9 18.7 63 4.8 W 7 11 4 6 1009.8 - 0.0
27/03:00am 26.5 28.1 17.9 59 5.5 WNW 6 9 3 5 1009.7 1007.4 0.0
27/02:30am 27.1 28.7 18.3 58 5.7 WNW 7 11 4 6 1009.6 - 0.0
27/02:00am 26.8 26.6 16.6 53 6.4 WNW 13 15 7 8 1009.5 - 0.0
27/01:30am 29.2 29.9 16.2 45 8.2 SW 7 9 4 5 1009.6 - 0.0
27/01:00am 30.1 29.8 14.3 38 9.7 S 9 11 5 6 1010.0 - 0.0
27/12:30am 30.3 29.6 14.4 38 9.8 S 11 13 6 7 1010.2 - 0.0
27/12:00am 30.2 29.7 14.9 39 9.5 SSW 11 13 6 7 1010.5 1008.2 0.0
 
Date/Time
EST
Temp
°C
App
Temp
°C
Dew
Point
Rel
Hum
%
Delta-T
°C
Wind Press
QNH
hPa
Press
MSL
hPa
Rain
since 9 am
mm
Dir
 
Spd
km/h
Gust
km/h
Spd
kts
Gust
kts
26/11:30pm 28.8 30.0 18.3 53 6.8 WSW 9 13 5 7 1010.7 - 0.0
26/11:00pm 28.6 31.1 19.8 59 5.8 WNW 6 7 3 4 1011.0 - 0.0
26/10:30pm 28.9 30.4 18.8 54 6.6 WSW 9 11 5 6 1010.9 - 0.0
26/10:00pm 30.3 31.3 17.8 47 8.1 SSW 9 11 5 6 1010.8 - 0.0
26/09:30pm 30.8 31.0 16.7 42 9.0 S 11 15 6 8 1010.7 - 0.0
26/09:00pm 31.0 30.8 15.6 39 9.7 S 11 15 6 8 1010.5 1008.2 0.0
26/08:30pm 30.9 29.0 15.2 38 9.8 WSW 19 28 10 15 1010.2 - 0.0
26/08:00pm 31.6 29.7 15.1 36 10.3 SW 19 32 10 17 1009.9 - 0.0
26/07:41pm 33.3 29.7 13.2 29 12.3 SW 24 33 13 18 1009.6 - 0.0
26/07:40pm 33.0 27.1 13.7 31 11.9 S 37 56 20 30 1009.7 - 0.0
26/07:39pm 33.0 25.8 13.2 30 12.1 S 43 56 23 30 1009.7 - 0.0
26/07:30pm 33.1 32.9 13.6 30 12.0 E 7 9 4 5 1009.6 - 0.0
26/07:00pm 34.1 33.2 13.7 29 12.6 ESE 11 15 6 8 1009.1 - 0.0
26/06:30pm 34.6 32.8 13.3 27 13.1 E 15 19 8 10 1008.7 - 0.0
26/06:00pm 35.0 33.7 13.7 27 13.2 E 13 22 7 12 1008.5 1006.2 0.0
26/05:30pm 35.7 33.5 12.0 24 14.4 ESE 15 19 8 10 1008.3 - 0.0
26/05:00pm 36.4 33.5 12.9 24 14.5 E 20 26 11 14 1008.2 - 0.0
26/04:30pm 35.4 34.4 13.4 26 13.6 SE 11 20 6 11 1008.4 - 0.0
26/04:00pm 35.3 33.9 13.5 27 13.5 E 13 17 7 9 1008.3 - 0.0
26/03:30pm 35.6 34.9 14.4 28 13.3 ESE 11 15 6 8 1008.5 - 0.0
26/03:00pm 35.2 32.9 13.1 26 13.6 ENE 17 22 9 12 1008.9 1006.6 0.0
26/02:30pm 35.5 34.5 14.7 28 13.1 ENE 13 26 7 14 1009.3 - 0.0
26/02:00pm 36.3 34.7 15.0 28 13.5 ENE 17 24 9 13 1009.5 - 0.0
26/01:30pm 35.2 33.1 15.1 30 12.7 E 20 35 11 19 1009.9 - 0.0
26/01:00pm 35.6 32.1 14.6 28 13.2 E 26 37 14 20 1010.3 - 0.0
26/12:30pm 34.4 31.6 15.3 31 12.1 E 24 33 13 18 1010.6 - 0.0
26/12:00pm 34.0 30.4 15.3 32 11.8 E 28 35 15 19 1010.8 1008.6 0.0
26/11:30am 33.3 29.8 15.4 34 11.3 E 28 41 15 22 1011.3 - 0.0
26/11:00am 32.6 29.5 15.5 35 10.8 ENE 26 39 14 21 1011.6 - 0.0
26/10:30am 33.2 29.2 15.3 34 11.3 E 30 41 16 22 1011.6 - 0.0
26/10:00am 31.4 27.9 15.5 38 10.0 E 28 39 15 21 1011.8 - 0.0
26/09:30am 31.6 28.9 16.6 40 9.6 E 26 37 14 20 1011.9 - 0.0
26/09:00am 30.1 27.5 16.0 42 8.9 E 24 41 13 22 1012.0 1009.7 4.4
26/08:30am 29.4 27.6 15.4 42 8.7 ESE 19 35 10 19 1011.8 - 4.4
26/08:00am 28.5 27.3 16.1 47 7.8 SE 17 26 9 14 1011.7 - 4.4
26/07:30am 27.6 25.2 16.5 50 7.0 SE 24 39 13 21 1011.5 - 4.4
26/07:00am 27.4 25.3 16.2 50 7.0 SSE 22 33 12 18 1011.4 - 4.4
26/06:30am 27.2 24.7 16.2 51 6.9 SE 24 35 13 19 1010.9 - 4.4
26/06:00am 26.3 24.4 16.8 56 6.0 SSE 22 32 12 17 1010.6 1008.3 4.2
26/05:30am 26.2 24.8 17.0 57 5.8 SSE 20 30 11 16 1010.4 - 4.2
26/05:00am 26.6 24.3 16.6 54 6.3 SSE 24 32 13 17 1010.5 - 4.2
26/04:30am 26.9 24.2 16.6 53 6.5 SSE 26 35 14 19 1010.1 - 4.2
26/04:17am 27.2 24.0 16.4 51 6.8 SSE 28 46 15 25 1010.1 - 4.2
26/04:00am 27.6 23.6 16.1 49 7.2 SSE 32 39 17 21 1010.2 - 4.2
26/03:30am 27.7 25.9 17.0 52 6.8 SSE 22 37 12 20 1010.3 - 4.2
26/03:00am 28.0 26.5 16.8 50 7.1 SSE 20 30 11 16 1010.1 1007.8 4.2
26/02:30am 28.2 26.9 16.7 49 7.3 S 19 26 10 14 1010.1 - 4.2
26/02:00am 28.4 27.4 16.7 49 7.4 SSE 17 24 9 13 1010.1 - 4.2
26/01:30am 28.3 27.5 17.2 51 7.1 S 17 20 9 11 1010.0 - 4.2
26/01:00am 27.8 28.7 18.4 56 6.1 S 11 15 6 8 1010.3 - 4.2
26/12:30am 27.7 29.2 18.8 58 5.8 S 9 11 5 6 1010.6 - 4.2
26/12:00am 28.2 28.2 18.0 54 6.6 S 15 17 8 9 1010.7 1008.5 4.2
 
Date/Time
EST
Temp
°C
App
Temp
°C
Dew
Point
Rel
Hum
%
Delta-T
°C
Wind Press
QNH
hPa
Press
MSL
hPa
Rain
since 9 am
mm
Dir
 
Spd
km/h
Gust
km/h
Spd
kts
Gust
kts
25/11:30pm 28.1 28.4 18.0 54 6.5 S 13 15 7 8 1011.2 - 4.2
25/11:00pm 27.5 29.2 19.4 61 5.3 S 9 9 5 5 1011.4 - 4.2
25/10:30pm 27.8 28.7 19.3 60 5.6 S 13 17 7 9 1011.7 - 4.2
25/10:00pm 26.8 27.7 20.8 69 4.0 SW 17 19 9 10 1011.6 - 4.2
25/09:30pm 26.0 28.7 22.9 83 2.1 WSW 13 15 7 8 1011.4 - 4.2
25/09:00pm 25.6 29.8 23.1 86 1.7 ESE 6 15 3 8 1011.5 1009.2 4.2
25/08:30pm 25.2 28.9 23.9 92 0.9 SW 11 15 6 8 1010.7 - 4.2
25/08:25pm 25.0 28.0 23.3 90 1.2 WSW 13 17 7 9 1010.6 - 4.2
25/08:00pm 25.3 27.0 21.6 80 2.5 ESE 15 26 8 14 1011.3 - 2.8
25/07:53pm 26.2 28.1 21.3 74 3.3 ESE 13 17 7 9 1010.8 - 1.0
25/07:39pm 28.6 26.6 19.2 56 6.2 S 28 41 15 22 1010.2 - 0.0
25/07:30pm 29.1 30.2 18.1 51 7.1 W 9 11 5 6 1009.8 - 0.0
25/07:00pm 29.0 30.4 18.6 53 6.8 W 9 15 5 8 1009.2 - 0.0
25/06:30pm 28.5 28.2 19.2 57 6.1 W 19 24 10 13 1009.1 - 0.0
25/06:00pm 29.2 29.7 19.2 54 6.6 S 15 20 8 11 1009.5 1007.2 0.0
25/05:30pm 28.8 28.4 18.1 52 6.9 WNW 17 30 9 16 1009.0 - 0.0
25/05:00pm 28.8 27.1 18.0 52 7.0 W 24 39 13 21 1008.6 - 0.0
25/04:30pm 30.0 29.4 17.6 47 8.0 SW 17 28 9 15 1008.9 - 0.0
25/04:00pm 30.5 29.4 18.6 49 7.8 NW 22 28 12 15 1007.9 - 0.0
25/03:40pm 30.3 27.0 18.3 48 7.8 NNW 33 37 18 20 1008.3 - 0.0
25/03:30pm 32.2 26.9 17.2 40 9.7 N 41 50 22 27 1008.3 - 0.0
25/03:23pm 33.1 28.7 17.6 39 10.1 N 37 43 20 23 1008.3 - 0.0
25/03:00pm 35.5 34.1 16.9 33 12.1 SSW 20 32 11 17 1008.4 1006.1 0.0
25/02:30pm 36.8 36.6 15.8 28 13.5 S 11 22 6 12 1008.6 - 0.0
25/02:00pm 36.4 34.9 16.3 30 13.0 SSW 19 24 10 13 1009.2 - 0.0
25/01:30pm 37.0 36.7 16.5 29 13.3 S 13 20 7 11 1009.9 - 0.0
25/01:00pm 35.3 36.0 17.0 33 11.9 N 9 15 5 8 1010.6 - 0.0
25/12:30pm 35.3 35.1 17.6 35 11.6 W 15 24 8 13 1010.9 - 0.0
25/12:00pm 35.2 34.7 17.8 35 11.4 WSW 17 28 9 15 1011.4 1009.1 0.0
25/11:30am 34.5 34.5 16.3 33 11.7 WSW 11 15 6 8 1011.8 - 0.0
25/11:00am 34.1 34.1 17.3 36 10.9 N 13 22 7 12 1012.1 - 0.0
25/10:30am 32.0 33.2 17.3 41 9.5 NNE 7 15 4 8 1012.4 - 0.0
25/10:00am 31.1 31.6 17.5 44 8.8 NNE 11 19 6 10 1012.5 - 0.0
25/09:30am 30.4 32.0 18.3 48 7.9 NW 7 11 4 6 1012.3 - 0.0
25/09:00am 29.2 31.3 19.0 54 6.7 NW 6 7 3 4 1011.8 1009.5 0.0
25/08:30am 28.2 29.7 18.9 57 6.1 W 9 11 5 6 1011.7 - 0.0
25/08:00am 27.0 30.1 21.4 71 3.8 WNW 7 7 4 4 1011.5 - 0.0
25/07:30am 26.2 29.4 21.3 74 3.3 W 6 7 3 4 1011.3 - 0.0
25/07:00am 25.6 28.6 20.8 75 3.2 WNW 6 6 3 3 1010.9 - 0.0
25/06:30am 25.0 29.2 21.7 82 2.2 NE 2 9 1 5 1010.7 - 0.0
25/06:00am 24.9 27.9 20.0 74 3.2 NNW 4 9 2 5 1010.3 1008.0 0.0
25/05:30am 25.5 28.0 21.0 76 3.0 N 9 11 5 6 1009.8 - 0.0
25/05:00am 25.6 27.7 20.1 71 3.6 ESE 9 11 5 6 1009.7 - 0.0
25/04:30am 25.0 27.8 20.8 77 2.8 S 7 7 4 4 1009.7 - 0.0
25/04:00am 25.1 27.3 19.6 71 3.6 ESE 7 11 4 6 1009.5 - 0.0
25/03:30am 26.0 27.5 19.8 68 4.1 E 11 13 6 7 1009.2 - 0.0
25/03:00am 26.9 28.6 18.6 60 5.4 ESE 7 11 4 6 1009.4 1007.1 0.0
25/02:30am 26.5 28.3 19.5 65 4.6 SE 9 13 5 7 1009.4 - 0.0
25/02:00am 27.1 29.6 19.1 61 5.2 N 4 11 2 6 1009.4 - 0.0
25/01:30am 25.6 29.8 21.0 75 3.1 CALM 0 0 0 0 1009.8 - 0.0
25/01:00am 26.1 29.8 21.5 76 3.1 SE 4 7 2 4 1010.2 - 0.0
25/12:30am 26.2 29.1 21.1 73 3.4 SE 7 11 4 6 1010.3 - 0.0
25/12:00am 26.4 28.0 20.7 71 3.8 S 13 15 7 8 1010.6 1008.3 0.0
 
Date/Time
EST
Temp
°C
App
Temp
°C
Dew
Point
Rel
Hum
%
Delta-T
°C
Wind Press
QNH
hPa
Press
MSL
hPa
Rain
since 9 am
mm
Dir
 
Spd
km/h
Gust
km/h
Spd
kts
Gust
kts
24/11:30pm 26.9 28.2 20.1 66 4.5 SSE 13 17 7 9 1011.0 - 0.0

Other Formats:

Comma delimited format used in spreadsheet applications
http://www.bom.gov.au/fwo/IDQ60801/IDQ60801.94332.axf

JavaScript Object Notation format (JSON) in row-major order
http://www.bom.gov.au/fwo/IDQ60801/IDQ60801.94332.json